sensor_id;sensor_type;location;lat;lon;timestamp;pressure;altitude;pressure_sealevel;temperature;humidity
15678;BME280;7939;50.814;6.368;2023-06-19T00:02:27;99245.47;;;25.70;44.19
15678;BME280;7939;50.814;6.368;2023-06-19T00:04:54;99252.63;;;25.68;44.38
15678;BME280;7939;50.814;6.368;2023-06-19T00:07:20;99255.34;;;25.67;44.53
15678;BME280;7939;50.814;6.368;2023-06-19T00:09:47;99254.63;;;25.65;44.92
15678;BME280;7939;50.814;6.368;2023-06-19T00:12:14;99259.13;;;25.63;45.25
15678;BME280;7939;50.814;6.368;2023-06-19T00:14:40;99249.59;;;25.62;45.05
15678;BME280;7939;50.814;6.368;2023-06-19T00:17:08;99251.50;;;25.60;45.25
15678;BME280;7939;50.814;6.368;2023-06-19T00:19:35;99251.59;;;25.58;45.56
15678;BME280;7939;50.814;6.368;2023-06-19T00:22:02;99256.09;;;25.56;45.80
15678;BME280;7939;50.814;6.368;2023-06-19T00:24:29;99256.22;;;25.54;45.87
15678;BME280;7939;50.814;6.368;2023-06-19T00:26:56;99262.41;;;25.53;45.85
15678;BME280;7939;50.814;6.368;2023-06-19T00:29:28;99265.00;;;25.53;45.85
15678;BME280;7939;50.814;6.368;2023-06-19T00:31:55;99265.97;;;25.52;45.58
15678;BME280;7939;50.814;6.368;2023-06-19T00:34:21;99265.13;;;25.52;45.64
15678;BME280;7939;50.814;6.368;2023-06-19T00:36:50;99263.44;;;25.51;45.59
15678;BME280;7939;50.814;6.368;2023-06-19T00:39:19;99261.75;;;25.50;45.68
15678;BME280;7939;50.814;6.368;2023-06-19T00:41:46;99264.50;;;25.48;45.79
15678;BME280;7939;50.814;6.368;2023-06-19T00:44:13;99269.72;;;25.48;45.69
15678;BME280;7939;50.814;6.368;2023-06-19T00:46:40;99270.56;;;25.49;45.69
15678;BME280;7939;50.814;6.368;2023-06-19T00:49:07;99266.38;;;25.46;45.48
15678;BME280;7939;50.814;6.368;2023-06-19T00:51:34;99280.31;;;25.47;45.56
15678;BME280;7939;50.814;6.368;2023-06-19T00:54:02;99278.72;;;25.44;45.51
15678;BME280;7939;50.814;6.368;2023-06-19T00:56:30;99282.16;;;25.45;45.26
15678;BME280;7939;50.814;6.368;2023-06-19T00:58:56;99282.28;;;25.43;45.31
15678;BME280;7939;50.814;6.368;2023-06-19T01:01:23;99285.84;;;25.42;45.28
15678;BME280;7939;50.814;6.368;2023-06-19T01:03:51;99281.56;;;25.41;45.26
15678;BME280;7939;50.814;6.368;2023-06-19T01:06:21;99294.66;;;25.41;45.44
15678;BME280;7939;50.814;6.368;2023-06-19T01:08:52;99284.28;;;25.40;45.38
15678;BME280;7939;50.814;6.368;2023-06-19T01:11:27;99274.75;;;25.39;45.20
15678;BME280;7939;50.814;6.368;2023-06-19T01:13:56;99282.72;;;25.37;45.52
15678;BME280;7939;50.814;6.368;2023-06-19T01:16:25;99283.66;;;25.36;45.27
15678;BME280;7939;50.814;6.368;2023-06-19T01:18:53;99288.88;;;25.36;45.73
15678;BME280;7939;50.814;6.368;2023-06-19T01:21:20;99289.00;;;25.35;45.68
15678;BME280;7939;50.814;6.368;2023-06-19T01:23:48;99290.88;;;25.33;45.41
15678;BME280;7939;50.814;6.368;2023-06-19T01:26:17;99290.03;;;25.32;45.46
15678;BME280;7939;50.814;6.368;2023-06-19T01:28:45;99290.13;;;25.31;45.51
15678;BME280;7939;50.814;6.368;2023-06-19T01:31:15;99284.19;;;25.28;45.19
15678;BME280;7939;50.814;6.368;2023-06-19T01:33:44;99293.81;;;25.28;45.13
15678;BME280;7939;50.814;6.368;2023-06-19T01:36:14;99293.91;;;25.26;45.32
15678;BME280;7939;50.814;6.368;2023-06-19T01:38:42;99291.28;;;25.26;45.27
15678;BME280;7939;50.814;6.368;2023-06-19T01:41:12;99283.56;;;25.25;45.45
15678;BME280;7939;50.814;6.368;2023-06-19T01:43:40;99296.75;;;25.23;45.34
15678;BME280;7939;50.814;6.368;2023-06-19T01:46:08;99301.13;;;25.23;45.20
15678;BME280;7939;50.814;6.368;2023-06-19T01:48:34;99297.78;;;25.21;45.43
15678;BME280;7939;50.814;6.368;2023-06-19T01:51:01;99298.81;;;25.18;45.64
15678;BME280;7939;50.814;6.368;2023-06-19T01:53:30;99297.28;;;25.16;45.69
15678;BME280;7939;50.814;6.368;2023-06-19T01:55:56;99299.13;;;25.14;45.88
15678;BME280;7939;50.814;6.368;2023-06-19T01:58:24;99298.28;;;25.13;45.72
15678;BME280;7939;50.814;6.368;2023-06-19T02:00:51;99301.97;;;25.11;45.82
15678;BME280;7939;50.814;6.368;2023-06-19T02:03:18;99306.34;;;25.10;45.86
15678;BME280;7939;50.814;6.368;2023-06-19T02:05:44;99310.00;;;25.08;45.93
15678;BME280;7939;50.814;6.368;2023-06-19T02:08:11;99313.56;;;25.07;46.08
15678;BME280;7939;50.814;6.368;2023-06-19T02:10:37;99319.75;;;25.06;46.15
15678;BME280;7939;50.814;6.368;2023-06-19T02:13:04;99327.56;;;25.06;46.00
15678;BME280;7939;50.814;6.368;2023-06-19T02:15:32;99326.00;;;25.03;45.96
15678;BME280;7939;50.814;6.368;2023-06-19T02:17:59;99333.84;;;25.03;45.82
15678;BME280;7939;50.814;6.368;2023-06-19T02:20:26;99342.63;;;25.02;45.55
15678;BME280;7939;50.814;6.368;2023-06-19T02:22:52;99347.94;;;25.00;45.96
15678;BME280;7939;50.814;6.368;2023-06-19T02:25:19;99347.94;;;25.00;45.92
15678;BME280;7939;50.814;6.368;2023-06-19T02:27:46;99351.59;;;24.98;45.44
15678;BME280;7939;50.814;6.368;2023-06-19T02:30:13;99348.16;;;24.97;45.40
15678;BME280;7939;50.814;6.368;2023-06-19T02:32:41;99358.72;;;24.96;45.59
15678;BME280;7939;50.814;6.368;2023-06-19T02:35:10;99355.25;;;24.95;45.89
15678;BME280;7939;50.814;6.368;2023-06-19T02:37:37;99358.91;;;24.93;45.65
15678;BME280;7939;50.814;6.368;2023-06-19T02:40:04;99365.06;;;24.92;45.92
15678;BME280;7939;50.814;6.368;2023-06-19T02:42:31;99366.00;;;24.91;45.76
15678;BME280;7939;50.814;6.368;2023-06-19T02:44:58;99362.66;;;24.89;45.75
15678;BME280;7939;50.814;6.368;2023-06-19T02:47:29;99366.31;;;24.86;46.18
15678;BME280;7939;50.814;6.368;2023-06-19T02:49:57;99365.47;;;24.86;45.96
15678;BME280;7939;50.814;6.368;2023-06-19T02:52:24;99374.44;;;24.82;46.23
15678;BME280;7939;50.814;6.368;2023-06-19T02:54:51;99373.72;;;24.80;46.44
15678;BME280;7939;50.814;6.368;2023-06-19T02:57:17;99383.44;;;24.78;46.59
15678;BME280;7939;50.814;6.368;2023-06-19T02:59:44;99399.19;;;24.76;46.39
15678;BME280;7939;50.814;6.368;2023-06-19T03:02:11;99403.59;;;24.75;46.79
15678;BME280;7939;50.814;6.368;2023-06-19T03:04:37;99402.84;;;24.73;47.02
15678;BME280;7939;50.814;6.368;2023-06-19T03:07:06;99408.09;;;24.73;46.92
15678;BME280;7939;50.814;6.368;2023-06-19T03:09:32;99402.22;;;24.70;47.29
15678;BME280;7939;50.814;6.368;2023-06-19T03:11:59;99406.81;;;24.66;47.99
15678;BME280;7939;50.814;6.368;2023-06-19T03:14:25;99409.44;;;24.66;48.08
15678;BME280;7939;50.814;6.368;2023-06-19T03:16:52;99397.38;;;24.64;48.20
15678;BME280;7939;50.814;6.368;2023-06-19T03:19:18;99406.09;;;24.64;47.99
15678;BME280;7939;50.814;6.368;2023-06-19T03:21:45;99407.81;;;24.64;48.25
15678;BME280;7939;50.814;6.368;2023-06-19T03:24:13;99410.44;;;24.64;48.38
15678;BME280;7939;50.814;6.368;2023-06-19T03:26:40;99411.38;;;24.63;48.57
15678;BME280;7939;50.814;6.368;2023-06-19T03:29:07;99419.22;;;24.63;48.87
15678;BME280;7939;50.814;6.368;2023-06-19T03:31:34;99419.31;;;24.61;48.62
15678;BME280;7939;50.814;6.368;2023-06-19T03:34:00;99422.97;;;24.59;49.12
15678;BME280;7939;50.814;6.368;2023-06-19T03:36:27;99440.34;;;24.60;48.85
15678;BME280;7939;50.814;6.368;2023-06-19T03:38:54;99444.81;;;24.58;49.10
15678;BME280;7939;50.814;6.368;2023-06-19T03:41:22;99443.88;;;24.59;49.04
15678;BME280;7939;50.814;6.368;2023-06-19T03:43:48;99460.50;;;24.58;49.09
15678;BME280;7939;50.814;6.368;2023-06-19T03:46:15;99456.19;;;24.57;49.15
15678;BME280;7939;50.814;6.368;2023-06-19T03:48:41;99463.13;;;24.58;49.03
15678;BME280;7939;50.814;6.368;2023-06-19T03:51:08;99464.03;;;24.57;49.35
15678;BME280;7939;50.814;6.368;2023-06-19T03:53:34;99471.03;;;24.56;49.34
15678;BME280;7939;50.814;6.368;2023-06-19T03:56:01;99465.91;;;24.55;49.47
15678;BME280;7939;50.814;6.368;2023-06-19T03:58:29;99472.81;;;24.56;49.40
15678;BME280;7939;50.814;6.368;2023-06-19T04:00:56;99485.88;;;24.56;49.33
15678;BME280;7939;50.814;6.368;2023-06-19T04:03:22;99479.81;;;24.55;49.47
15678;BME280;7939;50.814;6.368;2023-06-19T04:05:49;99487.66;;;24.55;49.61
15678;BME280;7939;50.814;6.368;2023-06-19T04:08:15;99489.31;;;24.56;49.51
15678;BME280;7939;50.814;6.368;2023-06-19T04:10:42;99498.94;;;24.56;49.70
15678;BME280;7939;50.814;6.368;2023-06-19T04:13:09;99504.25;;;24.54;49.53
15678;BME280;7939;50.814;6.368;2023-06-19T04:15:37;99506.88;;;24.54;49.97
15678;BME280;7939;50.814;6.368;2023-06-19T04:18:03;99512.09;;;24.54;49.88
15678;BME280;7939;50.814;6.368;2023-06-19T04:20:30;99513.03;;;24.53;49.90
15678;BME280;7939;50.814;6.368;2023-06-19T04:22:57;99514.81;;;24.53;50.07
15678;BME280;7939;50.814;6.368;2023-06-19T04:25:23;99513.88;;;24.54;49.97
15678;BME280;7939;50.814;6.368;2023-06-19T04:27:50;99503.44;;;24.54;50.14
15678;BME280;7939;50.814;6.368;2023-06-19T04:30:17;99515.75;;;24.52;50.13
15678;BME280;7939;50.814;6.368;2023-06-19T04:32:46;99519.28;;;24.51;50.50
15678;BME280;7939;50.814;6.368;2023-06-19T04:35:12;99525.34;;;24.51;50.32
15678;BME280;7939;50.814;6.368;2023-06-19T04:37:39;99520.09;;;24.51;50.34
15678;BME280;7939;50.814;6.368;2023-06-19T04:40:07;99520.97;;;24.52;49.87
15678;BME280;7939;50.814;6.368;2023-06-19T04:42:34;99516.66;;;24.51;50.30
15678;BME280;7939;50.814;6.368;2023-06-19T04:45:00;99524.69;;;24.47;50.76
15678;BME280;7939;50.814;6.368;2023-06-19T04:47:27;99518.53;;;24.48;50.64
15678;BME280;7939;50.814;6.368;2023-06-19T04:49:55;99525.63;;;24.46;50.50
15678;BME280;7939;50.814;6.368;2023-06-19T04:52:21;99515.19;;;24.46;50.65
15678;BME280;7939;50.814;6.368;2023-06-19T04:54:48;99519.56;;;24.46;50.45
15678;BME280;7939;50.814;6.368;2023-06-19T04:57:15;99519.00;;;24.41;51.25
15678;BME280;7939;50.814;6.368;2023-06-19T04:59:42;99535.41;;;24.43;50.79
15678;BME280;7939;50.814;6.368;2023-06-19T05:02:09;99520.69;;;24.42;50.58
15678;BME280;7939;50.814;6.368;2023-06-19T05:04:36;99518.06;;;24.42;51.15
15678;BME280;7939;50.814;6.368;2023-06-19T05:07:05;99508.66;;;24.39;50.92
15678;BME280;7939;50.814;6.368;2023-06-19T05:09:32;99519.00;;;24.41;50.77
15678;BME280;7939;50.814;6.368;2023-06-19T05:11:58;99511.28;;;24.39;50.88
15678;BME280;7939;50.814;6.368;2023-06-19T05:14:25;99509.41;;;24.41;50.80
15678;BME280;7939;50.814;6.368;2023-06-19T05:16:51;99507.72;;;24.40;50.74
15678;BME280;7939;50.814;6.368;2023-06-19T05:19:18;99507.72;;;24.40;50.62
15678;BME280;7939;50.814;6.368;2023-06-19T05:21:44;99502.41;;;24.42;50.52
15678;BME280;7939;50.814;6.368;2023-06-19T05:24:12;99510.25;;;24.42;50.52
15678;BME280;7939;50.814;6.368;2023-06-19T05:26:39;99516.19;;;24.44;50.40
15678;BME280;7939;50.814;6.368;2023-06-19T05:29:05;99517.13;;;24.43;50.77
15678;BME280;7939;50.814;6.368;2023-06-19T05:31:34;99516.13;;;24.45;50.19
15678;BME280;7939;50.814;6.368;2023-06-19T05:34:01;99513.69;;;24.42;50.42
15678;BME280;7939;50.814;6.368;2023-06-19T05:36:27;99514.53;;;24.43;50.45
15678;BME280;7939;50.814;6.368;2023-06-19T05:38:54;99518.81;;;24.44;50.29
15678;BME280;7939;50.814;6.368;2023-06-19T05:41:21;99514.41;;;24.44;50.31
15678;BME280;7939;50.814;6.368;2023-06-19T05:43:48;99531.81;;;24.45;50.28
15678;BME280;7939;50.814;6.368;2023-06-19T05:46:15;99532.53;;;24.47;50.44
15678;BME280;7939;50.814;6.368;2023-06-19T05:48:42;99528.31;;;24.45;50.17
15678;BME280;7939;50.814;6.368;2023-06-19T05:51:08;99527.31;;;24.47;50.02
15678;BME280;7939;50.814;6.368;2023-06-19T05:53:35;99534.22;;;24.48;50.36
15678;BME280;7939;50.814;6.368;2023-06-19T05:56:04;99527.09;;;24.51;49.93
15678;BME280;7939;50.814;6.368;2023-06-19T05:58:32;99520.09;;;24.51;49.89
15678;BME280;7939;50.814;6.368;2023-06-19T06:00:59;99531.31;;;24.53;49.99
15678;BME280;7939;50.814;6.368;2023-06-19T06:03:26;99535.72;;;24.53;50.37
15678;BME280;7939;50.814;6.368;2023-06-19T06:05:53;99536.56;;;24.53;50.28
15678;BME280;7939;50.814;6.368;2023-06-19T06:08:19;99537.38;;;24.54;50.03
15678;BME280;7939;50.814;6.368;2023-06-19T06:10:46;99536.44;;;24.55;50.21
15678;BME280;7939;50.814;6.368;2023-06-19T06:13:13;99538.41;;;24.51;50.21
15678;BME280;7939;50.814;6.368;2023-06-19T06:15:41;99545.97;;;24.56;50.04
15678;BME280;7939;50.814;6.368;2023-06-19T06:18:08;99539.06;;;24.55;50.00
15678;BME280;7939;50.814;6.368;2023-06-19T06:20:34;99541.56;;;24.56;50.06
15678;BME280;7939;50.814;6.368;2023-06-19T06:23:01;99538.22;;;24.54;50.13
15678;BME280;7939;50.814;6.368;2023-06-19T06:25:28;99541.50;;;24.58;49.86
15678;BME280;7939;50.814;6.368;2023-06-19T06:27:55;99544.75;;;24.61;50.10
15678;BME280;7939;50.814;6.368;2023-06-19T06:30:22;99547.38;;;24.61;49.94
15678;BME280;7939;50.814;6.368;2023-06-19T06:32:50;99556.03;;;24.62;49.93
15678;BME280;7939;50.814;6.368;2023-06-19T06:35:17;99558.53;;;24.63;50.07
15678;BME280;7939;50.814;6.368;2023-06-19T06:37:43;99566.22;;;24.66;49.88
15678;BME280;7939;50.814;6.368;2023-06-19T06:40:11;99565.38;;;24.66;49.85
15678;BME280;7939;50.814;6.368;2023-06-19T06:42:38;99574.06;;;24.66;49.90
15678;BME280;7939;50.814;6.368;2023-06-19T06:45:06;99580.03;;;24.68;49.95
15678;BME280;7939;50.814;6.368;2023-06-19T06:47:34;99581.78;;;24.68;50.13
15678;BME280;7939;50.814;6.368;2023-06-19T06:50:02;99597.38;;;24.69;49.86
15678;BME280;7939;50.814;6.368;2023-06-19T06:52:29;99587.75;;;24.70;50.27
15678;BME280;7939;50.814;6.368;2023-06-19T06:54:57;99593.75;;;24.72;49.72
15678;BME280;7939;50.814;6.368;2023-06-19T06:57:24;99593.66;;;24.73;50.08
15678;BME280;7939;50.814;6.368;2023-06-19T06:59:51;99598.03;;;24.73;49.97
15678;BME280;7939;50.814;6.368;2023-06-19T07:02:17;99595.31;;;24.74;50.17
15678;BME280;7939;50.814;6.368;2023-06-19T07:04:44;99591.88;;;24.74;50.53
15678;BME280;7939;50.814;6.368;2023-06-19T07:07:12;99597.00;;;24.75;49.97
15678;BME280;7939;50.814;6.368;2023-06-19T07:09:39;99604.78;;;24.77;49.72
15678;BME280;7939;50.814;6.368;2023-06-19T07:12:06;99592.53;;;24.78;49.73
15678;BME280;7939;50.814;6.368;2023-06-19T07:14:33;99598.50;;;24.80;49.87
15678;BME280;7939;50.814;6.368;2023-06-19T07:16:59;99607.28;;;24.79;49.76
15678;BME280;7939;50.814;6.368;2023-06-19T07:19:26;99615.03;;;24.80;49.56
15678;BME280;7939;50.814;6.368;2023-06-19T07:21:52;99618.47;;;24.81;49.68
15678;BME280;7939;50.814;6.368;2023-06-19T07:24:20;99631.38;;;24.84;49.54
15678;BME280;7939;50.814;6.368;2023-06-19T07:26:49;99633.16;;;24.83;49.56
15678;BME280;7939;50.814;6.368;2023-06-19T07:29:16;99631.28;;;24.85;49.32
15678;BME280;7939;50.814;6.368;2023-06-19T07:31:42;99640.78;;;24.86;49.43
15678;BME280;7939;50.814;6.368;2023-06-19T07:34:09;99636.28;;;24.88;49.57
15678;BME280;7939;50.814;6.368;2023-06-19T07:36:35;99643.22;;;24.89;49.65
15678;BME280;7939;50.814;6.368;2023-06-19T07:39:02;99638.00;;;24.89;49.61
15678;BME280;7939;50.814;6.368;2023-06-19T07:41:30;99631.84;;;24.90;49.23
15678;BME280;7939;50.814;6.368;2023-06-19T07:43:57;99635.19;;;24.92;49.61
15678;BME280;7939;50.814;6.368;2023-06-19T07:46:24;99630.91;;;24.91;49.29
15678;BME280;7939;50.814;6.368;2023-06-19T07:48:50;99635.00;;;24.95;49.43
15678;BME280;7939;50.814;6.368;2023-06-19T07:51:17;99628.00;;;24.96;49.29
15678;BME280;7939;50.814;6.368;2023-06-19T07:53:43;99633.88;;;24.99;49.14
15678;BME280;7939;50.814;6.368;2023-06-19T07:56:10;99628.47;;;25.02;49.07
15678;BME280;7939;50.814;6.368;2023-06-19T07:58:38;99641.38;;;25.06;49.01
15678;BME280;7939;50.814;6.368;2023-06-19T08:01:04;99647.25;;;25.09;48.64
15678;BME280;7939;50.814;6.368;2023-06-19T08:03:31;99633.03;;;25.13;48.71
15678;BME280;7939;50.814;6.368;2023-06-19T08:05:58;99637.34;;;25.14;48.71
15678;BME280;7939;50.814;6.368;2023-06-19T08:08:24;99644.78;;;25.20;48.28
15678;BME280;7939;50.814;6.368;2023-06-19T08:10:51;99633.22;;;25.24;48.36
15678;BME280;7939;50.814;6.368;2023-06-19T08:13:17;99624.25;;;25.28;48.27
15678;BME280;7939;50.814;6.368;2023-06-19T08:15:46;99624.78;;;25.34;48.19
15678;BME280;7939;50.814;6.368;2023-06-19T08:18:13;99625.41;;;25.37;47.86
15678;BME280;7939;50.814;6.368;2023-06-19T08:20:39;99627.75;;;25.42;47.83
15678;BME280;7939;50.814;6.368;2023-06-19T08:23:06;99635.94;;;25.50;48.24
15678;BME280;7939;50.814;6.368;2023-06-19T08:25:32;99633.03;;;25.54;47.81
15678;BME280;7939;50.814;6.368;2023-06-19T08:27:59;99633.59;;;25.60;47.84
15678;BME280;7939;50.814;6.368;2023-06-19T08:30:26;99636.84;;;25.63;47.98
15678;BME280;7939;50.814;6.368;2023-06-19T08:32:54;99638.50;;;25.64;47.60
15678;BME280;7939;50.814;6.368;2023-06-19T08:35:20;99632.53;;;25.62;47.53
15678;BME280;7939;50.814;6.368;2023-06-19T08:37:47;99629.94;;;25.62;47.43
15678;BME280;7939;50.814;6.368;2023-06-19T08:40:14;99636.66;;;25.66;47.47
15678;BME280;7939;50.814;6.368;2023-06-19T08:42:49;99634.75;;;25.68;47.46
15678;BME280;7939;50.814;6.368;2023-06-19T08:45:17;99630.25;;;25.70;47.16
15678;BME280;7939;50.814;6.368;2023-06-19T08:47:46;99637.19;;;25.71;46.97
15678;BME280;7939;50.814;6.368;2023-06-19T08:50:13;99628.50;;;25.71;46.99
15678;BME280;7939;50.814;6.368;2023-06-19T08:52:40;99644.97;;;25.73;46.88
15678;BME280;7939;50.814;6.368;2023-06-19T08:55:07;99654.50;;;25.74;47.03
15678;BME280;7939;50.814;6.368;2023-06-19T08:57:35;99644.75;;;25.76;47.00
15678;BME280;7939;50.814;6.368;2023-06-19T09:00:04;99640.28;;;25.78;46.71
15678;BME280;7939;50.814;6.368;2023-06-19T09:02:42;99645.31;;;25.81;46.82
15678;BME280;7939;50.814;6.368;2023-06-19T09:05:14;99646.69;;;25.87;46.89
15678;BME280;7939;50.814;6.368;2023-06-19T09:07:41;99638.16;;;26.10;46.18
15678;BME280;7939;50.814;6.368;2023-06-19T09:10:13;99640.47;;;26.27;46.07
15678;BME280;7939;50.814;6.368;2023-06-19T09:12:41;99637.94;;;26.40;45.25
15678;BME280;7939;50.814;6.368;2023-06-19T09:15:13;99648.72;;;26.48;45.63
15678;BME280;7939;50.814;6.368;2023-06-19T09:17:40;99647.25;;;26.57;45.59
15678;BME280;7939;50.814;6.368;2023-06-19T09:20:08;99652.06;;;26.63;45.54
15678;BME280;7939;50.814;6.368;2023-06-19T09:22:37;99661.09;;;26.72;45.00
15678;BME280;7939;50.814;6.368;2023-06-19T09:25:05;99658.06;;;26.78;44.76
15678;BME280;7939;50.814;6.368;2023-06-19T09:27:35;99651.34;;;26.86;44.33
15678;BME280;7939;50.814;6.368;2023-06-19T09:30:01;99643.16;;;26.91;44.32
15678;BME280;7939;50.814;6.368;2023-06-19T09:32:30;99651.63;;;26.95;44.71
15678;BME280;7939;50.814;6.368;2023-06-19T09:34:57;99660.97;;;26.99;44.65
15678;BME280;7939;50.814;6.368;2023-06-19T09:37:25;99656.16;;;27.05;44.71
15678;BME280;7939;50.814;6.368;2023-06-19T09:39:53;99653.22;;;27.10;43.95
15678;BME280;7939;50.814;6.368;2023-06-19T09:42:24;99654.66;;;27.14;44.02
15678;BME280;7939;50.814;6.368;2023-06-19T09:44:55;99651.50;;;27.22;44.13
15678;BME280;7939;50.814;6.368;2023-06-19T09:47:25;99656.41;;;27.26;44.13
15678;BME280;7939;50.814;6.368;2023-06-19T09:49:54;99650.84;;;27.31;43.45
15678;BME280;7939;50.814;6.368;2023-06-19T09:52:22;99659.34;;;27.34;43.44
15678;BME280;7939;50.814;6.368;2023-06-19T09:54:50;99654.50;;;27.41;43.30
15678;BME280;7939;50.814;6.368;2023-06-19T09:57:17;99650.69;;;27.45;43.42
15678;BME280;7939;50.814;6.368;2023-06-19T09:59:46;99646.91;;;27.49;43.15
15678;BME280;7939;50.814;6.368;2023-06-19T10:02:15;99658.88;;;27.53;43.30
15678;BME280;7939;50.814;6.368;2023-06-19T10:04:44;99664.84;;;27.55;42.42
15678;BME280;7939;50.814;6.368;2023-06-19T10:07:16;99658.41;;;27.59;42.50
15678;BME280;7939;50.814;6.368;2023-06-19T10:09:58;99656.53;;;27.61;42.33
15678;BME280;7939;50.814;6.368;2023-06-19T10:12:39;99656.19;;;27.66;42.93
15678;BME280;7939;50.814;6.368;2023-06-19T10:15:11;99655.03;;;27.70;43.10
15678;BME280;7939;50.814;6.368;2023-06-19T10:17:43;99658.16;;;27.75;42.84
15678;BME280;7939;50.814;6.368;2023-06-19T10:20:20;99657.84;;;27.80;42.76
15678;BME280;7939;50.814;6.368;2023-06-19T10:22:55;99670.03;;;27.81;41.80
15678;BME280;7939;50.814;6.368;2023-06-19T10:25:22;99653.09;;;27.85;41.83
15678;BME280;7939;50.814;6.368;2023-06-19T10:27:50;99658.09;;;27.88;41.94
15678;BME280;7939;50.814;6.368;2023-06-19T10:30:19;99654.41;;;27.90;41.74
15678;BME280;7939;50.814;6.368;2023-06-19T10:32:46;99659.31;;;27.95;40.91
15678;BME280;7939;50.814;6.368;2023-06-19T10:35:13;99655.03;;;27.94;41.35
15678;BME280;7939;50.814;6.368;2023-06-19T10:37:40;99656.50;;;27.98;40.94
15678;BME280;7939;50.814;6.368;2023-06-19T10:40:08;99653.63;;;28.01;41.55
15678;BME280;7939;50.814;6.368;2023-06-19T10:42:36;99653.63;;;28.01;41.95
15678;BME280;7939;50.814;6.368;2023-06-19T10:45:04;99652.56;;;28.04;41.98
15678;BME280;7939;50.814;6.368;2023-06-19T10:47:32;99649.59;;;28.08;41.63
15678;BME280;7939;50.814;6.368;2023-06-19T10:49:59;99652.00;;;28.11;41.90
15678;BME280;7939;50.814;6.368;2023-06-19T10:52:28;99652.72;;;28.13;41.66
15678;BME280;7939;50.814;6.368;2023-06-19T10:54:54;99650.69;;;28.17;40.99
15678;BME280;7939;50.814;6.368;2023-06-19T10:57:28;99654.03;;;28.19;40.96
15678;BME280;7939;50.814;6.368;2023-06-19T10:59:55;99636.34;;;28.21;41.12
15678;BME280;7939;50.814;6.368;2023-06-19T11:02:22;99641.53;;;28.22;40.71
15678;BME280;7939;50.814;6.368;2023-06-19T11:04:52;99650.94;;;28.25;40.42
15678;BME280;7939;50.814;6.368;2023-06-19T11:07:19;99644.63;;;28.28;41.08
15678;BME280;7939;50.814;6.368;2023-06-19T11:09:45;99643.47;;;28.32;40.59
15678;BME280;7939;50.814;6.368;2023-06-19T11:12:18;99637.13;;;28.34;40.33
15678;BME280;7939;50.814;6.368;2023-06-19T11:14:47;99628.19;;;28.37;40.66
15678;BME280;7939;50.814;6.368;2023-06-19T11:17:14;99627.72;;;28.43;40.42
15678;BME280;7939;50.814;6.368;2023-06-19T11:19:41;99629.16;;;28.47;41.03
15678;BME280;7939;50.814;6.368;2023-06-19T11:22:10;99625.34;;;28.51;40.87
15678;BME280;7939;50.814;6.368;2023-06-19T11:24:42;99627.84;;;28.53;40.06
15678;BME280;7939;50.814;6.368;2023-06-19T11:27:16;99632.03;;;28.55;40.83
15678;BME280;7939;50.814;6.368;2023-06-19T11:29:43;99628.31;;;28.58;40.01
15678;BME280;7939;50.814;6.368;2023-06-19T11:32:12;99629.03;;;28.60;40.01
15678;BME280;7939;50.814;6.368;2023-06-19T11:34:40;99633.13;;;28.64;40.00
15678;BME280;7939;50.814;6.368;2023-06-19T11:37:11;99634.69;;;28.66;40.53
15678;BME280;7939;50.814;6.368;2023-06-19T11:39:38;99630.84;;;28.70;40.39
15678;BME280;7939;50.814;6.368;2023-06-19T11:42:06;99626.19;;;28.74;39.48
15678;BME280;7939;50.814;6.368;2023-06-19T11:44:33;99628.56;;;28.77;39.37
15678;BME280;7939;50.814;6.368;2023-06-19T11:47:00;99623.44;;;28.75;39.10
15678;BME280;7939;50.814;6.368;2023-06-19T11:49:34;99622.47;;;28.76;39.71
15678;BME280;7939;50.814;6.368;2023-06-19T11:52:01;99613.41;;;28.81;40.11
15678;BME280;7939;50.814;6.368;2023-06-19T11:54:28;99605.38;;;28.82;39.94
15678;BME280;7939;50.814;6.368;2023-06-19T11:56:54;99609.19;;;28.89;39.23
15678;BME280;7939;50.814;6.368;2023-06-19T11:59:21;99616.06;;;28.92;39.64
15678;BME280;7939;50.814;6.368;2023-06-19T12:01:48;99624.41;;;28.97;39.43
15678;BME280;7939;50.814;6.368;2023-06-19T12:04:14;99613.63;;;28.89;39.03
15678;BME280;7939;50.814;6.368;2023-06-19T12:06:43;99613.44;;;28.92;38.82
15678;BME280;7939;50.814;6.368;2023-06-19T12:09:09;99617.47;;;28.96;39.36
15678;BME280;7939;50.814;6.368;2023-06-19T12:11:36;99616.50;;;28.97;39.33
15678;BME280;7939;50.814;6.368;2023-06-19T12:14:03;99615.69;;;28.96;38.92
15678;BME280;7939;50.814;6.368;2023-06-19T12:16:30;99622.63;;;28.97;39.08
15678;BME280;7939;50.814;6.368;2023-06-19T12:18:57;99619.97;;;28.97;38.98
15678;BME280;7939;50.814;6.368;2023-06-19T12:21:23;99618.78;;;29.01;39.25
15678;BME280;7939;50.814;6.368;2023-06-19T12:23:51;99621.69;;;28.98;39.42
15678;BME280;7939;50.814;6.368;2023-06-19T12:26:18;99613.78;;;28.98;39.26
15678;BME280;7939;50.814;6.368;2023-06-19T12:28:45;99610.41;;;28.96;39.25
15678;BME280;7939;50.814;6.368;2023-06-19T12:31:12;99615.81;;;28.95;39.75
15678;BME280;7939;50.814;6.368;2023-06-19T12:33:38;99611.38;;;28.95;39.83
15678;BME280;7939;50.814;6.368;2023-06-19T12:36:10;99621.91;;;28.95;39.15
15678;BME280;7939;50.814;6.368;2023-06-19T12:38:38;99616.91;;;28.92;39.13
15678;BME280;7939;50.814;6.368;2023-06-19T12:41:06;99616.78;;;28.94;38.97
15678;BME280;7939;50.814;6.368;2023-06-19T12:43:32;99601.94;;;28.93;39.63
15678;BME280;7939;50.814;6.368;2023-06-19T12:46:00;99602.91;;;28.92;39.22
15678;BME280;7939;50.814;6.368;2023-06-19T12:48:27;99603.50;;;28.95;39.28
15678;BME280;7939;50.814;6.368;2023-06-19T12:50:54;99599.91;;;28.96;39.10
15678;BME280;7939;50.814;6.368;2023-06-19T12:53:20;99606.94;;;28.96;38.74
15678;BME280;7939;50.814;6.368;2023-06-19T12:55:51;99603.34;;;28.97;39.08
15678;BME280;7939;50.814;6.368;2023-06-19T12:58:20;99599.91;;;28.96;39.05
15678;BME280;7939;50.814;6.368;2023-06-19T13:00:46;99596.56;;;28.94;38.66
15678;BME280;7939;50.814;6.368;2023-06-19T13:03:13;99594.63;;;28.96;39.30
15678;BME280;7939;50.814;6.368;2023-06-19T13:05:40;99593.94;;;28.94;39.02
15678;BME280;7939;50.814;6.368;2023-06-19T13:08:06;99590.34;;;28.95;39.11
15678;BME280;7939;50.814;6.368;2023-06-19T13:10:33;99578.84;;;28.96;38.37
15678;BME280;7939;50.814;6.368;2023-06-19T13:13:00;99579.69;;;28.97;39.51